sensor_id;sensor_type;location;lat;lon;timestamp;temperature;humidity
28969;DHT22;16076;51.194;6.642;2022-07-26T00:01:19;20.10;99.90
28969;DHT22;16076;51.194;6.642;2022-07-26T00:03:46;20.00;99.90
28969;DHT22;16076;51.194;6.642;2022-07-26T00:06:12;19.90;99.90
28969;DHT22;16076;51.194;6.642;2022-07-26T00:08:38;19.90;99.90
28969;DHT22;16076;51.194;6.642;2022-07-26T00:11:06;19.70;99.90
28969;DHT22;16076;51.194;6.642;2022-07-26T00:13:32;19.70;99.90
28969;DHT22;16076;51.194;6.642;2022-07-26T00:15:57;19.60;99.90
28969;DHT22;16076;51.194;6.642;2022-07-26T00:18:23;19.60;99.90
28969;DHT22;16076;51.194;6.642;2022-07-26T00:20:50;19.60;99.90
28969;DHT22;16076;51.194;6.642;2022-07-26T00:23:16;19.50;99.90
28969;DHT22;16076;51.194;6.642;2022-07-26T00:25:46;19.40;99.90
28969;DHT22;16076;51.194;6.642;2022-07-26T00:28:12;19.40;99.90
28969;DHT22;16076;51.194;6.642;2022-07-26T00:30:38;19.30;99.90
28969;DHT22;16076;51.194;6.642;2022-07-26T00:33:04;19.30;99.90
28969;DHT22;16076;51.194;6.642;2022-07-26T00:35:33;19.30;99.90
28969;DHT22;16076;51.194;6.642;2022-07-26T00:37:58;19.30;99.90
28969;DHT22;16076;51.194;6.642;2022-07-26T00:40:27;19.20;99.90
28969;DHT22;16076;51.194;6.642;2022-07-26T00:42:52;19.20;99.90
28969;DHT22;16076;51.194;6.642;2022-07-26T00:45:18;19.10;99.90
28969;DHT22;16076;51.194;6.642;2022-07-26T00:47:44;19.10;99.90
28969;DHT22;16076;51.194;6.642;2022-07-26T00:50:13;19.00;99.90
28969;DHT22;16076;51.194;6.642;2022-07-26T00:52:44;18.90;99.90
28969;DHT22;16076;51.194;6.642;2022-07-26T00:55:11;18.80;99.90
28969;DHT22;16076;51.194;6.642;2022-07-26T00:57:37;18.70;99.90
28969;DHT22;16076;51.194;6.642;2022-07-26T01:00:08;18.60;99.90
28969;DHT22;16076;51.194;6.642;2022-07-26T01:02:38;18.60;99.90
28969;DHT22;16076;51.194;6.642;2022-07-26T01:05:05;18.60;99.90
28969;DHT22;16076;51.194;6.642;2022-07-26T01:07:31;18.60;99.90
28969;DHT22;16076;51.194;6.642;2022-07-26T01:09:57;18.60;99.90
28969;DHT22;16076;51.194;6.642;2022-07-26T01:12:22;18.70;99.90
28969;DHT22;16076;51.194;6.642;2022-07-26T01:14:48;18.60;99.90
28969;DHT22;16076;51.194;6.642;2022-07-26T01:17:14;18.60;99.90
28969;DHT22;16076;51.194;6.642;2022-07-26T01:19:40;18.60;99.90
28969;DHT22;16076;51.194;6.642;2022-07-26T01:22:07;18.80;99.90
28969;DHT22;16076;51.194;6.642;2022-07-26T01:24:32;18.80;99.90
28969;DHT22;16076;51.194;6.642;2022-07-26T01:26:58;19.00;99.90
28969;DHT22;16076;51.194;6.642;2022-07-26T01:29:26;19.10;99.90
28969;DHT22;16076;51.194;6.642;2022-07-26T01:31:52;19.20;99.90
28969;DHT22;16076;51.194;6.642;2022-07-26T01:34:18;19.40;99.90
28969;DHT22;16076;51.194;6.642;2022-07-26T01:36:44;19.50;99.90
28969;DHT22;16076;51.194;6.642;2022-07-26T01:39:10;19.60;99.90
28969;DHT22;16076;51.194;6.642;2022-07-26T01:41:35;19.60;99.90
28969;DHT22;16076;51.194;6.642;2022-07-26T01:44:01;19.70;99.90
28969;DHT22;16076;51.194;6.642;2022-07-26T01:46:27;19.60;99.90
28969;DHT22;16076;51.194;6.642;2022-07-26T01:48:52;19.60;99.90
28969;DHT22;16076;51.194;6.642;2022-07-26T01:51:18;19.60;99.90
28969;DHT22;16076;51.194;6.642;2022-07-26T01:53:44;19.60;99.90
28969;DHT22;16076;51.194;6.642;2022-07-26T01:56:11;19.50;99.90
28969;DHT22;16076;51.194;6.642;2022-07-26T01:58:37;19.50;99.90
28969;DHT22;16076;51.194;6.642;2022-07-26T02:01:02;19.60;99.90
28969;DHT22;16076;51.194;6.642;2022-07-26T02:03:28;19.50;99.90
28969;DHT22;16076;51.194;6.642;2022-07-26T02:05:54;19.50;99.90
28969;DHT22;16076;51.194;6.642;2022-07-26T02:08:19;19.60;99.90
28969;DHT22;16076;51.194;6.642;2022-07-26T02:10:47;19.50;99.90
28969;DHT22;16076;51.194;6.642;2022-07-26T02:15:56;19.50;99.90
28969;DHT22;16076;51.194;6.642;2022-07-26T02:18:27;19.50;99.90
28969;DHT22;16076;51.194;6.642;2022-07-26T02:20:54;19.50;99.90
28969;DHT22;16076;51.194;6.642;2022-07-26T02:23:20;19.40;99.90
28969;DHT22;16076;51.194;6.642;2022-07-26T02:25:46;19.40;99.90
28969;DHT22;16076;51.194;6.642;2022-07-26T02:28:13;19.40;99.90
28969;DHT22;16076;51.194;6.642;2022-07-26T02:30:39;19.30;99.90
28969;DHT22;16076;51.194;6.642;2022-07-26T02:33:05;19.10;99.90
28969;DHT22;16076;51.194;6.642;2022-07-26T02:35:31;19.00;99.90
28969;DHT22;16076;51.194;6.642;2022-07-26T02:38:04;18.90;99.90
28969;DHT22;16076;51.194;6.642;2022-07-26T02:40:31;18.90;99.90
28969;DHT22;16076;51.194;6.642;2022-07-26T02:42:57;18.80;99.90
28969;DHT22;16076;51.194;6.642;2022-07-26T02:45:23;18.80;99.90
28969;DHT22;16076;51.194;6.642;2022-07-26T02:47:52;18.70;99.90
28969;DHT22;16076;51.194;6.642;2022-07-26T02:50:19;18.80;99.90
28969;DHT22;16076;51.194;6.642;2022-07-26T02:52:48;18.80;99.90
28969;DHT22;16076;51.194;6.642;2022-07-26T02:55:15;18.70;99.90
28969;DHT22;16076;51.194;6.642;2022-07-26T02:57:42;18.70;99.90
28969;DHT22;16076;51.194;6.642;2022-07-26T03:00:09;18.70;99.90
28969;DHT22;16076;51.194;6.642;2022-07-26T03:02:35;18.80;99.90
28969;DHT22;16076;51.194;6.642;2022-07-26T03:05:02;18.90;99.90
28969;DHT22;16076;51.194;6.642;2022-07-26T03:07:32;19.00;99.90
28969;DHT22;16076;51.194;6.642;2022-07-26T03:09:59;19.00;99.90
28969;DHT22;16076;51.194;6.642;2022-07-26T03:12:25;19.10;99.90
28969;DHT22;16076;51.194;6.642;2022-07-26T03:14:50;19.10;99.90
28969;DHT22;16076;51.194;6.642;2022-07-26T03:17:16;19.00;99.90
28969;DHT22;16076;51.194;6.642;2022-07-26T03:19:42;18.80;99.90
28969;DHT22;16076;51.194;6.642;2022-07-26T03:22:10;18.80;99.90
28969;DHT22;16076;51.194;6.642;2022-07-26T03:24:38;18.80;99.90
28969;DHT22;16076;51.194;6.642;2022-07-26T03:27:04;18.80;99.90
28969;DHT22;16076;51.194;6.642;2022-07-26T03:29:29;18.90;99.90
28969;DHT22;16076;51.194;6.642;2022-07-26T03:31:55;19.00;99.90
28969;DHT22;16076;51.194;6.642;2022-07-26T03:34:21;19.10;99.90
28969;DHT22;16076;51.194;6.642;2022-07-26T03:36:46;19.10;99.90
28969;DHT22;16076;51.194;6.642;2022-07-26T03:39:12;19.20;99.90
28969;DHT22;16076;51.194;6.642;2022-07-26T03:41:38;19.20;99.90
28969;DHT22;16076;51.194;6.642;2022-07-26T03:44:04;19.30;99.90
28969;DHT22;16076;51.194;6.642;2022-07-26T03:46:29;19.30;99.90
28969;DHT22;16076;51.194;6.642;2022-07-26T03:48:55;19.30;99.90
28969;DHT22;16076;51.194;6.642;2022-07-26T03:51:21;19.30;99.90
28969;DHT22;16076;51.194;6.642;2022-07-26T03:53:46;19.30;99.90
28969;DHT22;16076;51.194;6.642;2022-07-26T03:56:12;19.30;99.90
28969;DHT22;16076;51.194;6.642;2022-07-26T03:58:53;19.30;99.90
28969;DHT22;16076;51.194;6.642;2022-07-26T04:01:19;19.30;99.90
28969;DHT22;16076;51.194;6.642;2022-07-26T04:03:45;19.30;99.90
28969;DHT22;16076;51.194;6.642;2022-07-26T04:06:11;19.30;99.90
28969;DHT22;16076;51.194;6.642;2022-07-26T04:08:36;19.30;99.90
28969;DHT22;16076;51.194;6.642;2022-07-26T04:11:02;19.30;99.90
28969;DHT22;16076;51.194;6.642;2022-07-26T04:13:30;19.30;99.90
28969;DHT22;16076;51.194;6.642;2022-07-26T04:15:55;19.40;99.90
28969;DHT22;16076;51.194;6.642;2022-07-26T04:18:23;19.40;99.90
28969;DHT22;16076;51.194;6.642;2022-07-26T04:20:49;19.50;99.90
28969;DHT22;16076;51.194;6.642;2022-07-26T04:23:15;19.50;99.90
28969;DHT22;16076;51.194;6.642;2022-07-26T04:25:40;19.50;99.90
28969;DHT22;16076;51.194;6.642;2022-07-26T04:28:09;19.50;99.90
28969;DHT22;16076;51.194;6.642;2022-07-26T04:30:35;19.60;99.90
28969;DHT22;16076;51.194;6.642;2022-07-26T04:33:03;19.60;99.90
28969;DHT22;16076;51.194;6.642;2022-07-26T04:35:29;19.70;99.90
28969;DHT22;16076;51.194;6.642;2022-07-26T04:37:54;19.60;99.90
28969;DHT22;16076;51.194;6.642;2022-07-26T04:40:21;19.70;99.90
28969;DHT22;16076;51.194;6.642;2022-07-26T04:42:48;19.70;99.90
28969;DHT22;16076;51.194;6.642;2022-07-26T04:45:14;19.60;99.90
28969;DHT22;16076;51.194;6.642;2022-07-26T04:47:45;19.70;99.90
28969;DHT22;16076;51.194;6.642;2022-07-26T04:50:13;19.70;99.90
28969;DHT22;16076;51.194;6.642;2022-07-26T04:52:39;19.70;99.90
28969;DHT22;16076;51.194;6.642;2022-07-26T04:55:06;19.70;99.90
28969;DHT22;16076;51.194;6.642;2022-07-26T04:57:32;19.80;99.90
28969;DHT22;16076;51.194;6.642;2022-07-26T04:59:57;19.90;99.90
28969;DHT22;16076;51.194;6.642;2022-07-26T05:02:23;19.90;99.90
28969;DHT22;16076;51.194;6.642;2022-07-26T05:04:49;20.10;99.90
28969;DHT22;16076;51.194;6.642;2022-07-26T05:07:15;20.00;99.90
28969;DHT22;16076;51.194;6.642;2022-07-26T05:09:40;20.10;99.90
28969;DHT22;16076;51.194;6.642;2022-07-26T05:12:06;20.10;99.90
28969;DHT22;16076;51.194;6.642;2022-07-26T05:14:32;20.10;99.90
28969;DHT22;16076;51.194;6.642;2022-07-26T05:16:58;20.20;99.90
28969;DHT22;16076;51.194;6.642;2022-07-26T05:19:26;20.20;99.90
28969;DHT22;16076;51.194;6.642;2022-07-26T05:21:53;20.30;99.90
28969;DHT22;16076;51.194;6.642;2022-07-26T05:24:19;20.40;99.90
28969;DHT22;16076;51.194;6.642;2022-07-26T05:26:45;20.50;99.90
28969;DHT22;16076;51.194;6.642;2022-07-26T05:29:10;20.50;99.90
28969;DHT22;16076;51.194;6.642;2022-07-26T05:31:36;20.50;99.90
28969;DHT22;16076;51.194;6.642;2022-07-26T05:34:02;20.50;99.90
28969;DHT22;16076;51.194;6.642;2022-07-26T05:36:30;20.50;99.90
28969;DHT22;16076;51.194;6.642;2022-07-26T05:38:55;20.50;99.90
28969;DHT22;16076;51.194;6.642;2022-07-26T05:41:21;20.40;99.90
28969;DHT22;16076;51.194;6.642;2022-07-26T05:43:47;20.50;99.90
28969;DHT22;16076;51.194;6.642;2022-07-26T05:46:12;20.50;99.90
28969;DHT22;16076;51.194;6.642;2022-07-26T05:48:40;20.60;99.90
28969;DHT22;16076;51.194;6.642;2022-07-26T05:51:07;20.60;99.90
28969;DHT22;16076;51.194;6.642;2022-07-26T05:53:33;20.70;99.90
28969;DHT22;16076;51.194;6.642;2022-07-26T05:55:59;20.70;99.90
28969;DHT22;16076;51.194;6.642;2022-07-26T05:58:25;20.70;99.90
28969;DHT22;16076;51.194;6.642;2022-07-26T06:00:50;20.70;99.90
28969;DHT22;16076;51.194;6.642;2022-07-26T06:03:16;20.70;99.90
28969;DHT22;16076;51.194;6.642;2022-07-26T06:05:54;20.80;99.90
28969;DHT22;16076;51.194;6.642;2022-07-26T06:08:23;20.90;99.90
28969;DHT22;16076;51.194;6.642;2022-07-26T06:10:51;20.90;99.90
28969;DHT22;16076;51.194;6.642;2022-07-26T06:13:17;20.80;99.90
28969;DHT22;16076;51.194;6.642;2022-07-26T06:15:44;20.90;99.90
28969;DHT22;16076;51.194;6.642;2022-07-26T06:18:10;20.90;99.90
28969;DHT22;16076;51.194;6.642;2022-07-26T06:20:41;20.90;99.90
28969;DHT22;16076;51.194;6.642;2022-07-26T06:23:07;21.00;99.90
28969;DHT22;16076;51.194;6.642;2022-07-26T06:25:33;21.00;99.90
28969;DHT22;16076;51.194;6.642;2022-07-26T06:28:01;21.00;99.90
28969;DHT22;16076;51.194;6.642;2022-07-26T06:30:29;21.00;99.90
28969;DHT22;16076;51.194;6.642;2022-07-26T06:32:55;20.90;99.90
28969;DHT22;16076;51.194;6.642;2022-07-26T06:35:20;21.00;99.90
28969;DHT22;16076;51.194;6.642;2022-07-26T06:37:47;21.10;99.90
28969;DHT22;16076;51.194;6.642;2022-07-26T06:40:12;21.10;99.90
28969;DHT22;16076;51.194;6.642;2022-07-26T06:42:38;21.20;99.90
28969;DHT22;16076;51.194;6.642;2022-07-26T06:45:05;21.40;99.90
28969;DHT22;16076;51.194;6.642;2022-07-26T06:47:31;21.60;99.90
28969;DHT22;16076;51.194;6.642;2022-07-26T06:49:57;21.80;99.90
28969;DHT22;16076;51.194;6.642;2022-07-26T06:52:22;21.80;99.90
28969;DHT22;16076;51.194;6.642;2022-07-26T06:54:48;22.00;99.90
28969;DHT22;16076;51.194;6.642;2022-07-26T06:57:19;22.10;99.90
28969;DHT22;16076;51.194;6.642;2022-07-26T06:59:45;22.20;99.90
28969;DHT22;16076;51.194;6.642;2022-07-26T07:02:11;22.20;99.90
28969;DHT22;16076;51.194;6.642;2022-07-26T07:04:39;22.30;99.90
28969;DHT22;16076;51.194;6.642;2022-07-26T07:07:05;22.30;99.90
28969;DHT22;16076;51.194;6.642;2022-07-26T07:09:32;22.50;99.90
28969;DHT22;16076;51.194;6.642;2022-07-26T07:12:05;22.60;99.90
28969;DHT22;16076;51.194;6.642;2022-07-26T07:14:33;22.70;99.90
28969;DHT22;16076;51.194;6.642;2022-07-26T07:16:59;22.80;99.90
28969;DHT22;16076;51.194;6.642;2022-07-26T07:19:25;22.80;99.90
28969;DHT22;16076;51.194;6.642;2022-07-26T07:21:55;22.90;99.90
28969;DHT22;16076;51.194;6.642;2022-07-26T07:24:24;23.00;99.90
28969;DHT22;16076;51.194;6.642;2022-07-26T07:26:49;23.00;99.90
28969;DHT22;16076;51.194;6.642;2022-07-26T07:29:15;23.00;99.90
28969;DHT22;16076;51.194;6.642;2022-07-26T07:31:42;23.00;99.90
28969;DHT22;16076;51.194;6.642;2022-07-26T07:34:09;23.10;99.90
28969;DHT22;16076;51.194;6.642;2022-07-26T07:36:35;23.20;99.90
28969;DHT22;16076;51.194;6.642;2022-07-26T07:39:00;23.30;99.90
28969;DHT22;16076;51.194;6.642;2022-07-26T07:41:26;23.40;99.90
28969;DHT22;16076;51.194;6.642;2022-07-26T07:43:51;23.50;99.90
28969;DHT22;16076;51.194;6.642;2022-07-26T07:46:17;23.50;99.90
28969;DHT22;16076;51.194;6.642;2022-07-26T07:48:43;23.40;99.90
28969;DHT22;16076;51.194;6.642;2022-07-26T07:51:08;23.40;99.90
28969;DHT22;16076;51.194;6.642;2022-07-26T07:53:34;23.40;99.90
28969;DHT22;16076;51.194;6.642;2022-07-26T07:56:00;23.30;99.90
28969;DHT22;16076;51.194;6.642;2022-07-26T07:58:26;23.10;99.90
28969;DHT22;16076;51.194;6.642;2022-07-26T08:00:52;23.00;99.90
28969;DHT22;16076;51.194;6.642;2022-07-26T08:03:18;23.10;99.90
28969;DHT22;16076;51.194;6.642;2022-07-26T08:05:44;23.20;99.90
28969;DHT22;16076;51.194;6.642;2022-07-26T08:08:10;23.30;99.90
28969;DHT22;16076;51.194;6.642;2022-07-26T08:10:36;23.40;99.90
28969;DHT22;16076;51.194;6.642;2022-07-26T08:13:01;23.50;99.90
28969;DHT22;16076;51.194;6.642;2022-07-26T08:15:27;23.70;99.90
28969;DHT22;16076;51.194;6.642;2022-07-26T08:17:53;23.80;99.90
28969;DHT22;16076;51.194;6.642;2022-07-26T08:20:19;23.80;99.90
28969;DHT22;16076;51.194;6.642;2022-07-26T08:22:45;24.00;99.90
28969;DHT22;16076;51.194;6.642;2022-07-26T08:25:11;24.00;99.90
28969;DHT22;16076;51.194;6.642;2022-07-26T08:27:36;24.10;99.90
28969;DHT22;16076;51.194;6.642;2022-07-26T08:30:03;24.20;99.90
28969;DHT22;16076;51.194;6.642;2022-07-26T08:32:29;24.10;99.90
28969;DHT22;16076;51.194;6.642;2022-07-26T08:34:55;24.40;99.90
28969;DHT22;16076;51.194;6.642;2022-07-26T08:37:23;24.70;99.90
28969;DHT22;16076;51.194;6.642;2022-07-26T08:39:48;24.80;99.90
28969;DHT22;16076;51.194;6.642;2022-07-26T08:42:16;24.90;99.90
28969;DHT22;16076;51.194;6.642;2022-07-26T08:44:46;24.90;99.90
28969;DHT22;16076;51.194;6.642;2022-07-26T08:47:17;24.60;99.90
28969;DHT22;16076;51.194;6.642;2022-07-26T08:49:43;24.40;99.90
28969;DHT22;16076;51.194;6.642;2022-07-26T08:52:11;24.30;99.90
28969;DHT22;16076;51.194;6.642;2022-07-26T08:54:45;24.20;99.90
28969;DHT22;16076;51.194;6.642;2022-07-26T08:57:11;24.10;99.90
28969;DHT22;16076;51.194;6.642;2022-07-26T08:59:37;24.30;99.90
28969;DHT22;16076;51.194;6.642;2022-07-26T09:02:06;24.70;99.90
28969;DHT22;16076;51.194;6.642;2022-07-26T09:04:35;25.10;99.90
28969;DHT22;16076;51.194;6.642;2022-07-26T09:07:19;25.20;99.90
28969;DHT22;16076;51.194;6.642;2022-07-26T09:12:20;26.10;99.70
28969;DHT22;16076;51.194;6.642;2022-07-26T09:14:46;26.30;98.20
28969;DHT22;16076;51.194;6.642;2022-07-26T09:17:13;26.50;98.50
28969;DHT22;16076;51.194;6.642;2022-07-26T09:19:39;26.80;98.30
28969;DHT22;16076;51.194;6.642;2022-07-26T09:22:12;27.10;97.10
28969;DHT22;16076;51.194;6.642;2022-07-26T09:24:44;27.00;96.50
28969;DHT22;16076;51.194;6.642;2022-07-26T09:27:10;27.00;97.10
28969;DHT22;16076;51.194;6.642;2022-07-26T09:29:46;26.90;95.80
28969;DHT22;16076;51.194;6.642;2022-07-26T09:32:16;26.90;95.70
28969;DHT22;16076;51.194;6.642;2022-07-26T09:34:43;26.90;95.80
28969;DHT22;16076;51.194;6.642;2022-07-26T09:37:09;26.90;96.00
28969;DHT22;16076;51.194;6.642;2022-07-26T09:39:53;26.80;94.60
28969;DHT22;16076;51.194;6.642;2022-07-26T09:42:20;26.50;94.80
28969;DHT22;16076;51.194;6.642;2022-07-26T09:44:46;26.10;94.80
28969;DHT22;16076;51.194;6.642;2022-07-26T09:47:12;25.50;96.10
28969;DHT22;16076;51.194;6.642;2022-07-26T09:49:37;24.60;99.70
28969;DHT22;16076;51.194;6.642;2022-07-26T09:54:41;22.70;99.90
28969;DHT22;16076;51.194;6.642;2022-07-26T09:57:10;22.20;99.90
28969;DHT22;16076;51.194;6.642;2022-07-26T09:59:36;21.90;99.90
28969;DHT22;16076;51.194;6.642;2022-07-26T10:02:02;21.70;99.90
28969;DHT22;16076;51.194;6.642;2022-07-26T10:04:30;21.50;99.90
28969;DHT22;16076;51.194;6.642;2022-07-26T10:06:56;21.40;99.90
28969;DHT22;16076;51.194;6.642;2022-07-26T10:09:33;21.50;99.90
28969;DHT22;16076;51.194;6.642;2022-07-26T10:12:05;21.70;99.90
28969;DHT22;16076;51.194;6.642;2022-07-26T10:14:42;21.90;99.90
28969;DHT22;16076;51.194;6.642;2022-07-26T10:19:58;22.40;99.90
28969;DHT22;16076;51.194;6.642;2022-07-26T10:27:49;23.80;99.90
28969;DHT22;16076;51.194;6.642;2022-07-26T10:38:01;24.60;99.90
28969;DHT22;16076;51.194;6.642;2022-07-26T10:40:27;24.80;99.60
28969;DHT22;16076;51.194;6.642;2022-07-26T10:45:32;25.10;96.90
28969;DHT22;16076;51.194;6.642;2022-07-26T10:50:35;25.10;97.40
28969;DHT22;16076;51.194;6.642;2022-07-26T10:53:04;25.30;97.80
28969;DHT22;16076;51.194;6.642;2022-07-26T10:55:29;25.70;97.20
28969;DHT22;16076;51.194;6.642;2022-07-26T10:57:55;25.90;94.70
28969;DHT22;16076;51.194;6.642;2022-07-26T11:00:24;26.10;94.80
28969;DHT22;16076;51.194;6.642;2022-07-26T11:03:06;26.20;95.20
28969;DHT22;16076;51.194;6.642;2022-07-26T11:05:32;26.00;95.40
28969;DHT22;16076;51.194;6.642;2022-07-26T11:13:06;25.10;96.50
28969;DHT22;16076;51.194;6.642;2022-07-26T11:15:32;25.10;96.30
28969;DHT22;16076;51.194;6.642;2022-07-26T11:18:12;25.00;96.80
28969;DHT22;16076;51.194;6.642;2022-07-26T11:20:39;24.70;98.40
28969;DHT22;16076;51.194;6.642;2022-07-26T11:23:23;24.70;98.90
28969;DHT22;16076;51.194;6.642;2022-07-26T11:26:19;24.70;98.80
28969;DHT22;16076;51.194;6.642;2022-07-26T11:28:45;25.20;98.40
28969;DHT22;16076;51.194;6.642;2022-07-26T11:31:12;25.40;98.30
28969;DHT22;16076;51.194;6.642;2022-07-26T11:33:39;25.80;97.20
28969;DHT22;16076;51.194;6.642;2022-07-26T11:36:05;26.00;96.90
28969;DHT22;16076;51.194;6.642;2022-07-26T11:38:50;26.00;96.60
28969;DHT22;16076;51.194;6.642;2022-07-26T11:41:24;26.10;96.60
28969;DHT22;16076;51.194;6.642;2022-07-26T11:43:50;26.00;96.60
28969;DHT22;16076;51.194;6.642;2022-07-26T11:46:17;25.70;96.80
28969;DHT22;16076;51.194;6.642;2022-07-26T11:48:48;25.30;97.30
28969;DHT22;16076;51.194;6.642;2022-07-26T11:53:41;24.50;99.90
28969;DHT22;16076;51.194;6.642;2022-07-26T11:56:13;24.70;99.90
28969;DHT22;16076;51.194;6.642;2022-07-26T11:58:40;25.20;99.40
28969;DHT22;16076;51.194;6.642;2022-07-26T12:01:07;25.70;98.80
28969;DHT22;16076;51.194;6.642;2022-07-26T12:03:38;26.30;97.30
28969;DHT22;16076;51.194;6.642;2022-07-26T12:06:10;26.80;96.10
28969;DHT22;16076;51.194;6.642;2022-07-26T12:11:11;27.20;95.20
28969;DHT22;16076;51.194;6.642;2022-07-26T12:14:06;27.20;95.30
28969;DHT22;16076;51.194;6.642;2022-07-26T12:16:42;26.70;95.60
28969;DHT22;16076;51.194;6.642;2022-07-26T12:22:05;26.70;95.80
28969;DHT22;16076;51.194;6.642;2022-07-26T12:27:07;26.40;95.70
28969;DHT22;16076;51.194;6.642;2022-07-26T12:29:33;26.30;95.60
28969;DHT22;16076;51.194;6.642;2022-07-26T12:32:14;26.40;95.60
28969;DHT22;16076;51.194;6.642;2022-07-26T12:34:52;26.20;95.60
28969;DHT22;16076;51.194;6.642;2022-07-26T12:37:23;26.30;96.10
28969;DHT22;16076;51.194;6.642;2022-07-26T12:42:41;26.90;94.60
28969;DHT22;16076;51.194;6.642;2022-07-26T12:45:09;27.40;94.70
28969;DHT22;16076;51.194;6.642;2022-07-26T12:47:37;27.90;93.10
28969;DHT22;16076;51.194;6.642;2022-07-26T12:50:07;28.50;91.90
28969;DHT22;16076;51.194;6.642;2022-07-26T12:52:33;28.90;91.40
28969;DHT22;16076;51.194;6.642;2022-07-26T12:55:04;29.30;90.20
28969;DHT22;16076;51.194;6.642;2022-07-26T12:57:32;29.20;90.10
28969;DHT22;16076;51.194;6.642;2022-07-26T12:59:58;29.10;89.70
28969;DHT22;16076;51.194;6.642;2022-07-26T13:02:24;28.40;90.50
28969;DHT22;16076;51.194;6.642;2022-07-26T13:04:50;27.90;90.30
28969;DHT22;16076;51.194;6.642;2022-07-26T13:07:17;27.40;90.60
28969;DHT22;16076;51.194;6.642;2022-07-26T13:09:45;26.90;91.30
28969;DHT22;16076;51.194;6.642;2022-07-26T13:12:12;26.40;92.30
28969;DHT22;16076;51.194;6.642;2022-07-26T13:14:41;26.20;93.10
28969;DHT22;16076;51.194;6.642;2022-07-26T13:17:07;26.10;93.50
28969;DHT22;16076;51.194;6.642;2022-07-26T13:19:34;25.90;93.80
28969;DHT22;16076;51.194;6.642;2022-07-26T13:22:01;25.70;94.30
28969;DHT22;16076;51.194;6.642;2022-07-26T13:24:28;25.50;94.30
28969;DHT22;16076;51.194;6.642;2022-07-26T13:26:54;25.50;94.20
28969;DHT22;16076;51.194;6.642;2022-07-26T13:29:21;25.40;94.10
28969;DHT22;16076;51.194;6.642;2022-07-26T13:31:47;25.20;94.70
28969;DHT22;16076;51.194;6.642;2022-07-26T13:34:14;25.10;94.60
28969;DHT22;16076;51.194;6.642;2022-07-26T13:36:40;25.10;95.00
28969;DHT22;16076;51.194;6.642;2022-07-26T13:39:06;25.00;94.80
28969;DHT22;16076;51.194;6.642;2022-07-26T13:41:32;24.90;95.70
28969;DHT22;16076;51.194;6.642;2022-07-26T13:43:57;24.80;95.50
28969;DHT22;16076;51.194;6.642;2022-07-26T13:46:24;24.70;96.10
28969;DHT22;16076;51.194;6.642;2022-07-26T13:49:00;24.80;95.80
28969;DHT22;16076;51.194;6.642;2022-07-26T13:51:30;24.70;95.70
28969;DHT22;16076;51.194;6.642;2022-07-26T13:54:15;24.60;95.70
28969;DHT22;16076;51.194;6.642;2022-07-26T13:56:44;24.50;96.40
28969;DHT22;16076;51.194;6.642;2022-07-26T13:59:10;24.30;96.80
28969;DHT22;16076;51.194;6.642;2022-07-26T14:01:36;24.70;97.10
28969;DHT22;16076;51.194;6.642;2022-07-26T14:04:06;26.00;95.80
28969;DHT22;16076;51.194;6.642;2022-07-26T14:06:33;26.90;95.00
28969;DHT22;16076;51.194;6.642;2022-07-26T14:08:59;27.60;94.00
28969;DHT22;16076;51.194;6.642;2022-07-26T14:11:25;28.40;92.20
28969;DHT22;16076;51.194;6.642;2022-07-26T14:13:54;28.90;91.40
28969;DHT22;16076;51.194;6.642;2022-07-26T14:16:20;28.90;90.60
28969;DHT22;16076;51.194;6.642;2022-07-26T14:18:45;29.00;90.90
28969;DHT22;16076;51.194;6.642;2022-07-26T14:21:12;29.40;90.40
28969;DHT22;16076;51.194;6.642;2022-07-26T14:23:37;29.70;89.10
28969;DHT22;16076;51.194;6.642;2022-07-26T14:26:06;29.80;87.80
28969;DHT22;16076;51.194;6.642;2022-07-26T14:28:32;29.50;87.50
28969;DHT22;16076;51.194;6.642;2022-07-26T14:30:57;29.50;87.40
28969;DHT22;16076;51.194;6.642;2022-07-26T14:33:23;29.70;86.40
28969;DHT22;16076;51.194;6.642;2022-07-26T14:35:49;29.70;87.80
28969;DHT22;16076;51.194;6.642;2022-07-26T14:38:14;30.70;85.10
28969;DHT22;16076;51.194;6.642;2022-07-26T14:40:40;30.90;82.50
28969;DHT22;16076;51.194;6.642;2022-07-26T14:43:06;31.40;80.90
28969;DHT22;16076;51.194;6.642;2022-07-26T14:45:32;32.00;78.30
28969;DHT22;16076;51.194;6.642;2022-07-26T14:47:58;32.00;78.20
28969;DHT22;16076;51.194;6.642;2022-07-26T14:50:26;31.20;78.70
28969;DHT22;16076;51.194;6.642;2022-07-26T14:52:52;30.30;80.10
28969;DHT22;16076;51.194;6.642;2022-07-26T14:55:19;29.60;81.40
28969;DHT22;16076;51.194;6.642;2022-07-26T14:57:45;29.90;82.20
28969;DHT22;16076;51.194;6.642;2022-07-26T15:00:15;30.60;80.80
28969;DHT22;16076;51.194;6.642;2022-07-26T15:02:43;31.00;76.50
28969;DHT22;16076;51.194;6.642;2022-07-26T15:05:10;31.30;75.10
28969;DHT22;16076;51.194;6.642;2022-07-26T15:07:39;32.20;73.90
28969;DHT22;16076;51.194;6.642;2022-07-26T15:10:07;32.00;72.70
28969;DHT22;16076;51.194;6.642;2022-07-26T15:12:33;31.90;72.10
28969;DHT22;16076;51.194;6.642;2022-07-26T15:15:00;31.50;72.90
28969;DHT22;16076;51.194;6.642;2022-07-26T15:17:26;31.30;73.20
28969;DHT22;16076;51.194;6.642;2022-07-26T15:19:52;31.30;73.60
28969;DHT22;16076;51.194;6.642;2022-07-26T15:22:17;31.00;74.30
28969;DHT22;16076;51.194;6.642;2022-07-26T15:24:43;30.80;73.60
28969;DHT22;16076;51.194;6.642;2022-07-26T15:27:09;30.80;74.30
28969;DHT22;16076;51.194;6.642;2022-07-26T15:29:34;30.80;74.10
28969;DHT22;16076;51.194;6.642;2022-07-26T15:32:01;30.80;73.30
28969;DHT22;16076;51.194;6.642;2022-07-26T15:34:27;30.10;74.20
28969;DHT22;16076;51.194;6.642;2022-07-26T15:36:52;29.30;75.50
28969;DHT22;16076;51.194;6.642;2022-07-26T15:39:18;28.80;77.40
28969;DHT22;16076;51.194;6.642;2022-07-26T15:41:44;28.60;78.10
28969;DHT22;16076;51.194;6.642;2022-07-26T15:44:10;28.20;79.40
28969;DHT22;16076;51.194;6.642;2022-07-26T15:46:36;27.80;81.50
28969;DHT22;16076;51.194;6.642;2022-07-26T15:49:02;27.80;82.10
28969;DHT22;16076;51.194;6.642;2022-07-26T15:51:27;27.90;82.60
28969;DHT22;16076;51.194;6.642;2022-07-26T15:53:53;28.00;82.50
28969;DHT22;16076;51.194;6.642;2022-07-26T15:56:19;28.20;79.60
28969;DHT22;16076;51.194;6.642;2022-07-26T15:58:44;28.00;79.50
28969;DHT22;16076;51.194;6.642;2022-07-26T16:01:13;27.70;80.10
28969;DHT22;16076;51.194;6.642;2022-07-26T16:03:38;27.10;82.60
28969;DHT22;16076;51.194;6.642;2022-07-26T16:06:04;26.90;83.50
28969;DHT22;16076;51.194;6.642;2022-07-26T16:08:29;27.00;83.40
28969;DHT22;16076;51.194;6.642;2022-07-26T16:10:55;26.90;82.30
28969;DHT22;16076;51.194;6.642;2022-07-26T16:13:21;26.40;82.60
28969;DHT22;16076;51.194;6.642;2022-07-26T16:15:46;25.90;85.00
28969;DHT22;16076;51.194;6.642;2022-07-26T16:18:12;25.50;86.60